sensor_id;sensor_type;location;lat;lon;timestamp;temperature;humidity
20996;DHT22;10656;52.200;21.052;2023-12-29T00:02:28;5.20;99.90
20996;DHT22;10656;52.200;21.052;2023-12-29T00:04:57;5.10;99.90
20996;DHT22;10656;52.200;21.052;2023-12-29T00:07:29;4.90;99.90
20996;DHT22;10656;52.200;21.052;2023-12-29T00:10:04;4.90;99.90
20996;DHT22;10656;52.200;21.052;2023-12-29T00:12:33;4.80;99.90
20996;DHT22;10656;52.200;21.052;2023-12-29T00:15:04;5.00;99.90
20996;DHT22;10656;52.200;21.052;2023-12-29T00:17:33;4.90;99.90
20996;DHT22;10656;52.200;21.052;2023-12-29T00:20:09;5.10;99.90
20996;DHT22;10656;52.200;21.052;2023-12-29T00:22:47;5.00;99.90
20996;DHT22;10656;52.200;21.052;2023-12-29T00:25:18;5.10;99.90
20996;DHT22;10656;52.200;21.052;2023-12-29T00:27:47;5.30;99.90
20996;DHT22;10656;52.200;21.052;2023-12-29T00:30:17;5.30;99.90
20996;DHT22;10656;52.200;21.052;2023-12-29T00:32:49;5.10;99.90
20996;DHT22;10656;52.200;21.052;2023-12-29T00:35:23;5.10;99.90
20996;DHT22;10656;52.200;21.052;2023-12-29T00:37:52;5.10;99.90
20996;DHT22;10656;52.200;21.052;2023-12-29T00:40:22;5.10;99.90
20996;DHT22;10656;52.200;21.052;2023-12-29T00:42:51;5.10;99.90
20996;DHT22;10656;52.200;21.052;2023-12-29T00:45:22;5.00;99.90
20996;DHT22;10656;52.200;21.052;2023-12-29T00:47:51;5.10;99.90
20996;DHT22;10656;52.200;21.052;2023-12-29T00:50:21;5.00;99.90
20996;DHT22;10656;52.200;21.052;2023-12-29T00:52:50;5.10;99.90
20996;DHT22;10656;52.200;21.052;2023-12-29T00:55:21;5.00;99.90
20996;DHT22;10656;52.200;21.052;2023-12-29T00:57:50;5.10;99.90
20996;DHT22;10656;52.200;21.052;2023-12-29T01:00:19;5.10;99.90
20996;DHT22;10656;52.200;21.052;2023-12-29T01:02:49;5.00;99.90
20996;DHT22;10656;52.200;21.052;2023-12-29T01:05:18;4.90;99.90
20996;DHT22;10656;52.200;21.052;2023-12-29T01:07:48;4.90;99.90
20996;DHT22;10656;52.200;21.052;2023-12-29T01:10:17;4.80;99.90
20996;DHT22;10656;52.200;21.052;2023-12-29T01:12:47;4.90;99.90
20996;DHT22;10656;52.200;21.052;2023-12-29T01:15:17;4.80;99.90
20996;DHT22;10656;52.200;21.052;2023-12-29T01:17:45;4.60;99.90
20996;DHT22;10656;52.200;21.052;2023-12-29T01:20:15;4.60;99.90
20996;DHT22;10656;52.200;21.052;2023-12-29T01:22:43;4.60;99.90
20996;DHT22;10656;52.200;21.052;2023-12-29T01:25:13;4.50;99.90
20996;DHT22;10656;52.200;21.052;2023-12-29T01:27:42;4.50;99.90
20996;DHT22;10656;52.200;21.052;2023-12-29T01:30:13;4.50;99.90
20996;DHT22;10656;52.200;21.052;2023-12-29T01:32:42;4.40;99.90
20996;DHT22;10656;52.200;21.052;2023-12-29T01:35:11;4.30;99.90
20996;DHT22;10656;52.200;21.052;2023-12-29T01:37:42;4.30;99.90
20996;DHT22;10656;52.200;21.052;2023-12-29T01:40:12;4.30;99.90
20996;DHT22;10656;52.200;21.052;2023-12-29T01:42:43;4.20;99.90
20996;DHT22;10656;52.200;21.052;2023-12-29T01:45:21;4.10;99.90
20996;DHT22;10656;52.200;21.052;2023-12-29T01:47:50;3.90;99.90
20996;DHT22;10656;52.200;21.052;2023-12-29T01:50:21;3.80;99.90
20996;DHT22;10656;52.200;21.052;2023-12-29T01:52:50;3.90;99.90
20996;DHT22;10656;52.200;21.052;2023-12-29T01:55:21;3.90;99.90
20996;DHT22;10656;52.200;21.052;2023-12-29T01:57:51;3.80;99.90
20996;DHT22;10656;52.200;21.052;2023-12-29T02:00:22;3.90;99.90
20996;DHT22;10656;52.200;21.052;2023-12-29T02:02:51;3.90;99.90
20996;DHT22;10656;52.200;21.052;2023-12-29T02:05:22;3.90;99.90
20996;DHT22;10656;52.200;21.052;2023-12-29T02:07:52;4.10;99.90
20996;DHT22;10656;52.200;21.052;2023-12-29T02:10:22;4.00;99.90
20996;DHT22;10656;52.200;21.052;2023-12-29T02:12:51;4.20;99.90
20996;DHT22;10656;52.200;21.052;2023-12-29T02:15:26;4.00;99.90
20996;DHT22;10656;52.200;21.052;2023-12-29T02:17:59;4.00;99.90
20996;DHT22;10656;52.200;21.052;2023-12-29T02:20:30;4.00;99.90
20996;DHT22;10656;52.200;21.052;2023-12-29T02:22:59;3.90;99.90
20996;DHT22;10656;52.200;21.052;2023-12-29T02:25:30;3.80;99.90
20996;DHT22;10656;52.200;21.052;2023-12-29T02:28:02;3.70;99.90
20996;DHT22;10656;52.200;21.052;2023-12-29T02:30:38;3.60;99.90
20996;DHT22;10656;52.200;21.052;2023-12-29T02:33:10;3.60;99.90
20996;DHT22;10656;52.200;21.052;2023-12-29T02:35:42;3.40;99.90
20996;DHT22;10656;52.200;21.052;2023-12-29T02:38:11;3.80;99.90
20996;DHT22;10656;52.200;21.052;2023-12-29T02:40:42;3.80;99.90
20996;DHT22;10656;52.200;21.052;2023-12-29T02:43:13;3.90;99.90
20996;DHT22;10656;52.200;21.052;2023-12-29T02:45:42;3.70;99.90
20996;DHT22;10656;52.200;21.052;2023-12-29T02:48:11;3.70;99.90
20996;DHT22;10656;52.200;21.052;2023-12-29T02:50:50;3.80;99.90
20996;DHT22;10656;52.200;21.052;2023-12-29T02:53:18;3.70;99.90
20996;DHT22;10656;52.200;21.052;2023-12-29T02:55:51;3.70;99.90
20996;DHT22;10656;52.200;21.052;2023-12-29T02:58:23;3.50;99.90
20996;DHT22;10656;52.200;21.052;2023-12-29T03:00:52;3.60;99.90
20996;DHT22;10656;52.200;21.052;2023-12-29T03:03:21;3.60;99.90
20996;DHT22;10656;52.200;21.052;2023-12-29T03:05:50;3.60;99.90
20996;DHT22;10656;52.200;21.052;2023-12-29T03:08:20;3.50;99.90
20996;DHT22;10656;52.200;21.052;2023-12-29T03:10:50;3.40;99.90
20996;DHT22;10656;52.200;21.052;2023-12-29T03:13:20;3.40;99.90
20996;DHT22;10656;52.200;21.052;2023-12-29T03:15:49;3.50;99.90
20996;DHT22;10656;52.200;21.052;2023-12-29T03:18:18;3.50;99.90
20996;DHT22;10656;52.200;21.052;2023-12-29T03:20:47;3.40;99.90
20996;DHT22;10656;52.200;21.052;2023-12-29T03:23:16;3.40;99.90
20996;DHT22;10656;52.200;21.052;2023-12-29T03:25:50;3.40;99.90
20996;DHT22;10656;52.200;21.052;2023-12-29T03:28:19;3.30;99.90
20996;DHT22;10656;52.200;21.052;2023-12-29T03:30:48;3.30;99.90
20996;DHT22;10656;52.200;21.052;2023-12-29T03:33:17;3.20;99.90
20996;DHT22;10656;52.200;21.052;2023-12-29T03:35:46;3.30;99.90
20996;DHT22;10656;52.200;21.052;2023-12-29T03:38:15;3.30;99.90
20996;DHT22;10656;52.200;21.052;2023-12-29T03:40:45;3.30;99.90
20996;DHT22;10656;52.200;21.052;2023-12-29T03:43:17;3.50;99.90
20996;DHT22;10656;52.200;21.052;2023-12-29T03:45:48;3.20;99.90
20996;DHT22;10656;52.200;21.052;2023-12-29T03:48:17;3.30;99.90
20996;DHT22;10656;52.200;21.052;2023-12-29T03:50:46;3.20;99.90
20996;DHT22;10656;52.200;21.052;2023-12-29T03:53:16;3.30;99.90
20996;DHT22;10656;52.200;21.052;2023-12-29T03:55:47;3.10;99.90
20996;DHT22;10656;52.200;21.052;2023-12-29T03:58:18;3.20;99.90
20996;DHT22;10656;52.200;21.052;2023-12-29T04:00:47;3.20;99.90
20996;DHT22;10656;52.200;21.052;2023-12-29T04:03:16;3.20;99.90
20996;DHT22;10656;52.200;21.052;2023-12-29T04:05:45;3.10;99.90
20996;DHT22;10656;52.200;21.052;2023-12-29T04:08:14;3.10;99.90
20996;DHT22;10656;52.200;21.052;2023-12-29T04:10:43;3.20;99.90
20996;DHT22;10656;52.200;21.052;2023-12-29T04:13:12;3.00;99.90
20996;DHT22;10656;52.200;21.052;2023-12-29T04:15:43;3.00;99.90
20996;DHT22;10656;52.200;21.052;2023-12-29T04:18:11;2.90;99.90
20996;DHT22;10656;52.200;21.052;2023-12-29T04:20:41;3.20;99.90
20996;DHT22;10656;52.200;21.052;2023-12-29T04:23:10;3.10;99.90
20996;DHT22;10656;52.200;21.052;2023-12-29T04:25:40;3.10;99.90
20996;DHT22;10656;52.200;21.052;2023-12-29T04:28:09;3.10;99.90
20996;DHT22;10656;52.200;21.052;2023-12-29T04:30:38;3.30;99.90
20996;DHT22;10656;52.200;21.052;2023-12-29T04:33:08;3.20;99.90
20996;DHT22;10656;52.200;21.052;2023-12-29T04:35:38;3.10;99.90
20996;DHT22;10656;52.200;21.052;2023-12-29T04:38:06;3.00;99.90
20996;DHT22;10656;52.200;21.052;2023-12-29T04:40:36;3.10;99.90
20996;DHT22;10656;52.200;21.052;2023-12-29T04:43:05;3.10;99.90
20996;DHT22;10656;52.200;21.052;2023-12-29T04:45:34;3.10;99.90
20996;DHT22;10656;52.200;21.052;2023-12-29T04:48:04;3.30;99.90
20996;DHT22;10656;52.200;21.052;2023-12-29T04:50:35;3.20;99.90
20996;DHT22;10656;52.200;21.052;2023-12-29T04:53:04;3.40;99.90
20996;DHT22;10656;52.200;21.052;2023-12-29T04:55:33;3.30;99.90
20996;DHT22;10656;52.200;21.052;2023-12-29T04:58:04;3.40;99.90
20996;DHT22;10656;52.200;21.052;2023-12-29T05:00:34;3.20;99.90
20996;DHT22;10656;52.200;21.052;2023-12-29T05:03:04;3.40;99.90
20996;DHT22;10656;52.200;21.052;2023-12-29T05:05:35;3.30;99.90
20996;DHT22;10656;52.200;21.052;2023-12-29T05:08:04;3.30;99.90
20996;DHT22;10656;52.200;21.052;2023-12-29T05:10:33;3.50;99.90
20996;DHT22;10656;52.200;21.052;2023-12-29T05:13:07;3.60;99.90
20996;DHT22;10656;52.200;21.052;2023-12-29T05:15:36;3.60;99.90
20996;DHT22;10656;52.200;21.052;2023-12-29T05:18:05;3.80;99.90
20996;DHT22;10656;52.200;21.052;2023-12-29T05:20:37;3.70;99.90
20996;DHT22;10656;52.200;21.052;2023-12-29T05:23:07;3.70;99.90
20996;DHT22;10656;52.200;21.052;2023-12-29T05:25:36;3.80;99.90
20996;DHT22;10656;52.200;21.052;2023-12-29T05:28:10;3.80;99.90
20996;DHT22;10656;52.200;21.052;2023-12-29T05:30:39;3.70;99.90
20996;DHT22;10656;52.200;21.052;2023-12-29T05:33:08;3.80;99.90
20996;DHT22;10656;52.200;21.052;2023-12-29T05:35:38;3.80;99.90
20996;DHT22;10656;52.200;21.052;2023-12-29T05:38:07;3.90;99.90
20996;DHT22;10656;52.200;21.052;2023-12-29T05:40:36;4.00;99.90
20996;DHT22;10656;52.200;21.052;2023-12-29T05:43:05;4.00;99.90
20996;DHT22;10656;52.200;21.052;2023-12-29T05:45:35;4.00;99.90
20996;DHT22;10656;52.200;21.052;2023-12-29T05:48:05;4.10;99.90
20996;DHT22;10656;52.200;21.052;2023-12-29T05:50:34;4.10;99.90
20996;DHT22;10656;52.200;21.052;2023-12-29T05:53:05;4.10;99.90
20996;DHT22;10656;52.200;21.052;2023-12-29T05:55:34;4.00;99.90
20996;DHT22;10656;52.200;21.052;2023-12-29T05:58:03;4.00;99.90
20996;DHT22;10656;52.200;21.052;2023-12-29T06:00:34;4.00;99.90
20996;DHT22;10656;52.200;21.052;2023-12-29T06:20:27;4.00;99.90
20996;DHT22;10656;52.200;21.052;2023-12-29T06:22:57;4.10;99.90
20996;DHT22;10656;52.200;21.052;2023-12-29T06:25:40;4.10;99.90
20996;DHT22;10656;52.200;21.052;2023-12-29T06:28:35;4.00;99.90
20996;DHT22;10656;52.200;21.052;2023-12-29T06:31:18;4.00;99.90
20996;DHT22;10656;52.200;21.052;2023-12-29T06:33:52;4.10;99.90
20996;DHT22;10656;52.200;21.052;2023-12-29T06:36:22;4.00;99.90
20996;DHT22;10656;52.200;21.052;2023-12-29T06:38:58;4.00;99.90
20996;DHT22;10656;52.200;21.052;2023-12-29T06:41:27;3.90;99.90
20996;DHT22;10656;52.200;21.052;2023-12-29T06:44:01;3.90;99.90
20996;DHT22;10656;52.200;21.052;2023-12-29T06:46:44;3.90;99.90
20996;DHT22;10656;52.200;21.052;2023-12-29T06:49:18;4.00;99.90
20996;DHT22;10656;52.200;21.052;2023-12-29T06:51:51;4.00;99.90
20996;DHT22;10656;52.200;21.052;2023-12-29T06:54:21;4.00;99.90
20996;DHT22;10656;52.200;21.052;2023-12-29T06:57:17;4.10;99.90
20996;DHT22;10656;52.200;21.052;2023-12-29T07:03:30;4.30;99.90
20996;DHT22;10656;52.200;21.052;2023-12-29T07:06:00;4.30;99.90
20996;DHT22;10656;52.200;21.052;2023-12-29T07:08:30;4.20;99.90
20996;DHT22;10656;52.200;21.052;2023-12-29T07:10:59;4.20;99.90
20996;DHT22;10656;52.200;21.052;2023-12-29T07:13:27;4.20;99.90
20996;DHT22;10656;52.200;21.052;2023-12-29T07:15:56;4.20;99.90
20996;DHT22;10656;52.200;21.052;2023-12-29T07:18:24;4.30;99.90
20996;DHT22;10656;52.200;21.052;2023-12-29T07:20:53;4.30;99.90
20996;DHT22;10656;52.200;21.052;2023-12-29T07:23:22;4.30;99.90
20996;DHT22;10656;52.200;21.052;2023-12-29T07:25:52;4.30;99.90
20996;DHT22;10656;52.200;21.052;2023-12-29T07:28:21;4.40;99.90
20996;DHT22;10656;52.200;21.052;2023-12-29T07:30:49;4.40;99.90
20996;DHT22;10656;52.200;21.052;2023-12-29T07:33:18;4.50;99.90
20996;DHT22;10656;52.200;21.052;2023-12-29T07:35:46;4.60;99.90
20996;DHT22;10656;52.200;21.052;2023-12-29T07:38:15;4.70;99.90
20996;DHT22;10656;52.200;21.052;2023-12-29T07:40:44;4.80;99.90
20996;DHT22;10656;52.200;21.052;2023-12-29T07:43:16;4.90;99.90
20996;DHT22;10656;52.200;21.052;2023-12-29T07:45:44;5.00;99.90
20996;DHT22;10656;52.200;21.052;2023-12-29T07:48:13;5.10;99.90
20996;DHT22;10656;52.200;21.052;2023-12-29T07:50:42;5.10;99.90
20996;DHT22;10656;52.200;21.052;2023-12-29T07:53:11;5.10;99.90
20996;DHT22;10656;52.200;21.052;2023-12-29T07:55:39;5.10;99.90
20996;DHT22;10656;52.200;21.052;2023-12-29T07:58:08;5.10;99.90
20996;DHT22;10656;52.200;21.052;2023-12-29T08:00:39;5.10;99.90
20996;DHT22;10656;52.200;21.052;2023-12-29T08:03:07;5.10;99.90
20996;DHT22;10656;52.200;21.052;2023-12-29T08:05:36;5.10;99.90
20996;DHT22;10656;52.200;21.052;2023-12-29T08:08:05;5.10;99.90
20996;DHT22;10656;52.200;21.052;2023-12-29T08:10:33;5.20;99.90
20996;DHT22;10656;52.200;21.052;2023-12-29T08:13:02;5.20;99.90
20996;DHT22;10656;52.200;21.052;2023-12-29T08:15:31;5.20;99.90
20996;DHT22;10656;52.200;21.052;2023-12-29T08:18:01;5.20;99.90
20996;DHT22;10656;52.200;21.052;2023-12-29T08:20:30;5.30;99.90
20996;DHT22;10656;52.200;21.052;2023-12-29T08:22:59;5.40;99.90
20996;DHT22;10656;52.200;21.052;2023-12-29T08:25:30;5.20;99.90
20996;DHT22;10656;52.200;21.052;2023-12-29T08:27:58;5.30;99.90
20996;DHT22;10656;52.200;21.052;2023-12-29T08:30:27;5.30;99.90
20996;DHT22;10656;52.200;21.052;2023-12-29T08:33:33;5.30;99.90
20996;DHT22;10656;52.200;21.052;2023-12-29T08:36:06;5.30;99.90
20996;DHT22;10656;52.200;21.052;2023-12-29T08:38:38;5.30;99.90
20996;DHT22;10656;52.200;21.052;2023-12-29T08:41:09;5.30;99.90
20996;DHT22;10656;52.200;21.052;2023-12-29T08:43:44;5.30;99.90
20996;DHT22;10656;52.200;21.052;2023-12-29T08:46:13;5.40;99.90
20996;DHT22;10656;52.200;21.052;2023-12-29T08:48:48;5.50;99.90
20996;DHT22;10656;52.200;21.052;2023-12-29T08:51:17;5.40;99.90
20996;DHT22;10656;52.200;21.052;2023-12-29T08:53:46;5.40;99.90
20996;DHT22;10656;52.200;21.052;2023-12-29T08:56:14;5.50;99.90
20996;DHT22;10656;52.200;21.052;2023-12-29T08:58:43;5.50;99.90
20996;DHT22;10656;52.200;21.052;2023-12-29T09:01:14;5.70;99.90
20996;DHT22;10656;52.200;21.052;2023-12-29T09:03:44;5.70;99.90
20996;DHT22;10656;52.200;21.052;2023-12-29T09:06:15;5.70;99.90
20996;DHT22;10656;52.200;21.052;2023-12-29T09:08:44;5.70;99.90
20996;DHT22;10656;52.200;21.052;2023-12-29T09:11:12;6.00;99.90
20996;DHT22;10656;52.200;21.052;2023-12-29T09:13:43;6.00;99.90
20996;DHT22;10656;52.200;21.052;2023-12-29T09:16:12;6.00;99.90
20996;DHT22;10656;52.200;21.052;2023-12-29T09:18:44;6.10;99.90
20996;DHT22;10656;52.200;21.052;2023-12-29T09:21:13;6.20;99.90
20996;DHT22;10656;52.200;21.052;2023-12-29T09:23:42;6.20;99.90
20996;DHT22;10656;52.200;21.052;2023-12-29T09:26:12;6.20;99.90
20996;DHT22;10656;52.200;21.052;2023-12-29T09:28:44;6.30;99.90
20996;DHT22;10656;52.200;21.052;2023-12-29T09:31:12;6.30;99.90
20996;DHT22;10656;52.200;21.052;2023-12-29T09:33:42;6.20;99.90
20996;DHT22;10656;52.200;21.052;2023-12-29T09:36:11;6.40;99.90
20996;DHT22;10656;52.200;21.052;2023-12-29T09:38:40;6.30;99.90
20996;DHT22;10656;52.200;21.052;2023-12-29T09:41:15;6.40;99.90
20996;DHT22;10656;52.200;21.052;2023-12-29T09:43:45;6.40;99.90
20996;DHT22;10656;52.200;21.052;2023-12-29T09:46:17;6.50;99.90
20996;DHT22;10656;52.200;21.052;2023-12-29T09:48:47;6.60;99.90
20996;DHT22;10656;52.200;21.052;2023-12-29T09:51:20;6.50;99.90
20996;DHT22;10656;52.200;21.052;2023-12-29T09:53:51;6.90;99.90
20996;DHT22;10656;52.200;21.052;2023-12-29T09:56:26;7.10;99.90
20996;DHT22;10656;52.200;21.052;2023-12-29T09:58:56;7.20;99.90
20996;DHT22;10656;52.200;21.052;2023-12-29T10:01:25;7.40;99.90
20996;DHT22;10656;52.200;21.052;2023-12-29T10:03:57;7.60;99.90
20996;DHT22;10656;52.200;21.052;2023-12-29T10:06:31;7.70;99.90
20996;DHT22;10656;52.200;21.052;2023-12-29T10:09:03;7.80;99.90
20996;DHT22;10656;52.200;21.052;2023-12-29T10:11:35;8.00;99.90
20996;DHT22;10656;52.200;21.052;2023-12-29T10:14:13;8.20;99.90
20996;DHT22;10656;52.200;21.052;2023-12-29T10:16:52;8.30;99.90
20996;DHT22;10656;52.200;21.052;2023-12-29T10:19:30;8.70;99.90
20996;DHT22;10656;52.200;21.052;2023-12-29T10:22:06;8.90;99.90
20996;DHT22;10656;52.200;21.052;2023-12-29T10:24:37;9.10;98.50
20996;DHT22;10656;52.200;21.052;2023-12-29T10:27:06;9.20;98.20
20996;DHT22;10656;52.200;21.052;2023-12-29T10:29:40;9.20;98.10
20996;DHT22;10656;52.200;21.052;2023-12-29T10:32:09;9.30;97.30
20996;DHT22;10656;52.200;21.052;2023-12-29T10:34:38;9.30;96.60
20996;DHT22;10656;52.200;21.052;2023-12-29T10:37:12;9.40;96.10
20996;DHT22;10656;52.200;21.052;2023-12-29T10:39:55;9.40;95.90
20996;DHT22;10656;52.200;21.052;2023-12-29T10:42:24;9.40;95.80
20996;DHT22;10656;52.200;21.052;2023-12-29T10:45:05;9.50;95.60
20996;DHT22;10656;52.200;21.052;2023-12-29T10:47:36;9.50;95.60
20996;DHT22;10656;52.200;21.052;2023-12-29T10:50:09;9.60;94.80
20996;DHT22;10656;52.200;21.052;2023-12-29T10:52:39;9.70;94.50
20996;DHT22;10656;52.200;21.052;2023-12-29T10:55:10;9.70;94.00
20996;DHT22;10656;52.200;21.052;2023-12-29T10:57:39;9.70;94.30
20996;DHT22;10656;52.200;21.052;2023-12-29T11:00:11;9.70;94.20
20996;DHT22;10656;52.200;21.052;2023-12-29T11:02:40;9.70;94.40
20996;DHT22;10656;52.200;21.052;2023-12-29T11:05:10;9.70;94.00
20996;DHT22;10656;52.200;21.052;2023-12-29T11:07:41;9.70;94.10
20996;DHT22;10656;52.200;21.052;2023-12-29T11:10:13;9.80;93.80
20996;DHT22;10656;52.200;21.052;2023-12-29T11:12:41;9.90;94.10
20996;DHT22;10656;52.200;21.052;2023-12-29T11:15:13;10.00;93.40
20996;DHT22;10656;52.200;21.052;2023-12-29T11:17:43;10.00;93.60
20996;DHT22;10656;52.200;21.052;2023-12-29T11:20:17;10.00;93.60
20996;DHT22;10656;52.200;21.052;2023-12-29T11:22:48;10.10;92.80
20996;DHT22;10656;52.200;21.052;2023-12-29T11:25:17;10.10;93.10
20996;DHT22;10656;52.200;21.052;2023-12-29T11:27:45;10.10;92.90
20996;DHT22;10656;52.200;21.052;2023-12-29T11:30:14;10.20;92.30
20996;DHT22;10656;52.200;21.052;2023-12-29T11:32:47;10.30;91.70
20996;DHT22;10656;52.200;21.052;2023-12-29T11:35:28;10.40;91.60
20996;DHT22;10656;52.200;21.052;2023-12-29T11:38:18;10.40;92.00
20996;DHT22;10656;52.200;21.052;2023-12-29T11:40:56;10.40;91.50
20996;DHT22;10656;52.200;21.052;2023-12-29T11:43:26;10.40;91.00
20996;DHT22;10656;52.200;21.052;2023-12-29T11:45:55;10.40;91.30
20996;DHT22;10656;52.200;21.052;2023-12-29T11:48:54;10.40;91.50
20996;DHT22;10656;52.200;21.052;2023-12-29T11:51:35;10.30;91.40
20996;DHT22;10656;52.200;21.052;2023-12-29T11:54:05;10.30;91.60
20996;DHT22;10656;52.200;21.052;2023-12-29T11:56:36;10.20;91.60
20996;DHT22;10656;52.200;21.052;2023-12-29T11:59:17;10.30;91.90
20996;DHT22;10656;52.200;21.052;2023-12-29T12:01:47;10.30;91.40
20996;DHT22;10656;52.200;21.052;2023-12-29T12:04:38;10.40;91.40
20996;DHT22;10656;52.200;21.052;2023-12-29T12:07:17;10.40;91.50
20996;DHT22;10656;52.200;21.052;2023-12-29T12:10:31;10.30;91.50
20996;DHT22;10656;52.200;21.052;2023-12-29T12:13:01;10.30;91.80
20996;DHT22;10656;52.200;21.052;2023-12-29T12:15:33;10.20;92.20
20996;DHT22;10656;52.200;21.052;2023-12-29T12:18:03;10.20;92.50
20996;DHT22;10656;52.200;21.052;2023-12-29T12:20:34;10.20;92.40
20996;DHT22;10656;52.200;21.052;2023-12-29T12:23:10;10.20;92.10
20996;DHT22;10656;52.200;21.052;2023-12-29T12:25:40;10.20;92.30
20996;DHT22;10656;52.200;21.052;2023-12-29T12:28:09;10.10;92.40
20996;DHT22;10656;52.200;21.052;2023-12-29T12:30:38;10.10;93.10
20996;DHT22;10656;52.200;21.052;2023-12-29T12:33:07;10.10;93.00
20996;DHT22;10656;52.200;21.052;2023-12-29T12:35:38;10.10;92.40
20996;DHT22;10656;52.200;21.052;2023-12-29T12:38:10;10.10;92.80
20996;DHT22;10656;52.200;21.052;2023-12-29T12:40:40;10.20;92.70
20996;DHT22;10656;52.200;21.052;2023-12-29T12:43:13;10.10;92.40
20996;DHT22;10656;52.200;21.052;2023-12-29T12:45:47;10.20;92.50
20996;DHT22;10656;52.200;21.052;2023-12-29T12:48:23;10.20;92.30
20996;DHT22;10656;52.200;21.052;2023-12-29T12:50:52;10.20;93.00
20996;DHT22;10656;52.200;21.052;2023-12-29T12:53:24;10.20;92.80
20996;DHT22;10656;52.200;21.052;2023-12-29T12:55:54;10.20;93.00
20996;DHT22;10656;52.200;21.052;2023-12-29T12:58:23;10.20;92.60
20996;DHT22;10656;52.200;21.052;2023-12-29T13:00:57;10.20;93.10
20996;DHT22;10656;52.200;21.052;2023-12-29T13:03:27;10.30;92.80
20996;DHT22;10656;52.200;21.052;2023-12-29T13:05:56;10.30;92.90
20996;DHT22;10656;52.200;21.052;2023-12-29T13:08:26;10.30;93.30
20996;DHT22;10656;52.200;21.052;2023-12-29T13:11:10;10.40;92.40
20996;DHT22;10656;52.200;21.052;2023-12-29T13:13:42;10.30;92.80
20996;DHT22;10656;52.200;21.052;2023-12-29T13:16:29;10.30;92.40
20996;DHT22;10656;52.200;21.052;2023-12-29T13:19:15;10.30;92.90
20996;DHT22;10656;52.200;21.052;2023-12-29T13:21:48;10.30;92.80
20996;DHT22;10656;52.200;21.052;2023-12-29T13:24:43;10.20;93.20
20996;DHT22;10656;52.200;21.052;2023-12-29T13:28:08;10.20;93.60
20996;DHT22;10656;52.200;21.052;2023-12-29T13:30:43;10.30;93.50
20996;DHT22;10656;52.200;21.052;2023-12-29T13:33:19;10.20;93.70
20996;DHT22;10656;52.200;21.052;2023-12-29T13:36:11;10.10;93.90
20996;DHT22;10656;52.200;21.052;2023-12-29T13:39:09;10.20;93.80
20996;DHT22;10656;52.200;21.052;2023-12-29T13:41:48;10.10;94.30
20996;DHT22;10656;52.200;21.052;2023-12-29T13:44:35;10.00;94.80
20996;DHT22;10656;52.200;21.052;2023-12-29T13:47:20;10.00;95.10
20996;DHT22;10656;52.200;21.052;2023-12-29T13:49:54;9.90;95.50
20996;DHT22;10656;52.200;21.052;2023-12-29T13:52:35;9.90;95.60
20996;DHT22;10656;52.200;21.052;2023-12-29T13:55:05;9.90;95.70
20996;DHT22;10656;52.200;21.052;2023-12-29T13:57:50;9.90;95.60
20996;DHT22;10656;52.200;21.052;2023-12-29T14:00:27;10.00;95.50
20996;DHT22;10656;52.200;21.052;2023-12-29T14:03:10;10.00;96.00
20996;DHT22;10656;52.200;21.052;2023-12-29T14:05:47;9.90;95.90
20996;DHT22;10656;52.200;21.052;2023-12-29T14:08:26;9.90;95.80
20996;DHT22;10656;52.200;21.052;2023-12-29T14:11:00;9.80;96.40
20996;DHT22;10656;52.200;21.052;2023-12-29T14:13:47;9.70;97.20
20996;DHT22;10656;52.200;21.052;2023-12-29T14:16:18;9.80;97.50
20996;DHT22;10656;52.200;21.052;2023-12-29T14:18:55;9.70;97.40
20996;DHT22;10656;52.200;21.052;2023-12-29T14:21:38;9.70;97.90
20996;DHT22;10656;52.200;21.052;2023-12-29T14:24:17;9.70;97.90
20996;DHT22;10656;52.200;21.052;2023-12-29T14:26:58;9.60;98.30
20996;DHT22;10656;52.200;21.052;2023-12-29T14:33:21;9.40;98.80
20996;DHT22;10656;52.200;21.052;2023-12-29T14:35:51;9.60;98.60
20996;DHT22;10656;52.200;21.052;2023-12-29T14:38:43;9.60;98.20
20996;DHT22;10656;52.200;21.052;2023-12-29T14:42:02;9.60;98.80
20996;DHT22;10656;52.200;21.052;2023-12-29T14:44:35;9.50;99.10
20996;DHT22;10656;52.200;21.052;2023-12-29T14:47:13;9.50;99.20
20996;DHT22;10656;52.200;21.052;2023-12-29T14:50:09;9.70;97.70
20996;DHT22;10656;52.200;21.052;2023-12-29T14:52:48;9.60;98.00
20996;DHT22;10656;52.200;21.052;2023-12-29T14:55:18;9.70;97.20
20996;DHT22;10656;52.200;21.052;2023-12-29T14:57:54;9.60;97.70
20996;DHT22;10656;52.200;21.052;2023-12-29T15:00:53;9.60;97.10
20996;DHT22;10656;52.200;21.052;2023-12-29T15:03:37;9.50;97.30
20996;DHT22;10656;52.200;21.052;2023-12-29T15:06:18;9.50;98.20
20996;DHT22;10656;52.200;21.052;2023-12-29T15:09:04;9.40;98.30
20996;DHT22;10656;52.200;21.052;2023-12-29T15:11:44;9.30;99.10
20996;DHT22;10656;52.200;21.052;2023-12-29T15:14:33;9.30;99.10
20996;DHT22;10656;52.200;21.052;2023-12-29T15:17:06;9.40;98.80
20996;DHT22;10656;52.200;21.052;2023-12-29T15:19:36;9.50;97.60
20996;DHT22;10656;52.200;21.052;2023-12-29T15:22:50;9.60;96.30
20996;DHT22;10656;52.200;21.052;2023-12-29T15:25:42;9.70;95.80
20996;DHT22;10656;52.200;21.052;2023-12-29T15:28:16;9.60;95.90
20996;DHT22;10656;52.200;21.052;2023-12-29T15:30:48;9.70;95.60
20996;DHT22;10656;52.200;21.052;2023-12-29T15:33:18;9.60;95.60
20996;DHT22;10656;52.200;21.052;2023-12-29T15:35:49;9.60;96.10
20996;DHT22;10656;52.200;21.052;2023-12-29T15:38:26;9.50;96.20
20996;DHT22;10656;52.200;21.052;2023-12-29T15:40:55;9.40;96.80
20996;DHT22;10656;52.200;21.052;2023-12-29T15:43:33;9.40;97.10
20996;DHT22;10656;52.200;21.052;2023-12-29T15:46:17;9.40;97.30
20996;DHT22;10656;52.200;21.052;2023-12-29T15:49:05;9.30;97.80
20996;DHT22;10656;52.200;21.052;2023-12-29T15:55:51;9.00;99.90
20996;DHT22;10656;52.200;21.052;2023-12-29T15:58:32;8.80;99.90
20996;DHT22;10656;52.200;21.052;2023-12-29T16:01:28;8.70;99.90
20996;DHT22;10656;52.200;21.052;2023-12-29T16:04:22;8.60;99.90
20996;DHT22;10656;52.200;21.052;2023-12-29T16:07:30;8.50;99.90
20996;DHT22;10656;52.200;21.052;2023-12-29T16:10:02;8.50;99.90
20996;DHT22;10656;52.200;21.052;2023-12-29T16:12:33;8.30;99.90
20996;DHT22;10656;52.200;21.052;2023-12-29T16:15:03;8.20;99.90
20996;DHT22;10656;52.200;21.052;2023-12-29T16:18:01;8.10;99.90
20996;DHT22;10656;52.200;21.052;2023-12-29T16:21:09;8.10;99.90
20996;DHT22;10656;52.200;21.052;2023-12-29T16:24:38;8.10;99.90
20996;DHT22;10656;52.200;21.052;2023-12-29T16:31:21;7.90;99.90
20996;DHT22;10656;52.200;21.052;2023-12-29T16:38:00;8.30;99.90
20996;DHT22;10656;52.200;21.052;2023-12-29T16:40:56;8.40;99.90
20996;DHT22;10656;52.200;21.052;2023-12-29T16:43:26;8.40;99.90
20996;DHT22;10656;52.200;21.052;2023-12-29T16:45:55;8.40;99.90